Time;durP1;ratioP1;P1;durP2;ratioP2;P2;SDS_P1;SDS_P2;PMS_P1;PMS_P2;Temp;Humidity;BMP_temperature;BMP_pressure;BME280_temperature;BME280_humidity;BME280_pressure;Samples;Min_cycle;Max_cycle;Signal;HPM_P1;HPM_P2
2022/12/24 00:01:01;;;;;;;5.97;2.87;;;;;;;;;;5042839;27;86964;-56
2022/12/24 00:03:30;;;;;;;3.40;2.40;;;;;;;;;;5042584;27;87036;-56
2022/12/24 00:05:59;;;;;;;3.47;2.70;;;;;;;;;;5059334;27;89203;-56
2022/12/24 00:08:27;;;;;;;2.57;2.23;;;;;;;;;;5055457;27;87733;-56
2022/12/24 00:10:55;;;;;;;7.37;3.20;;;;;;;;;;5056013;27;87067;-56
2022/12/24 00:13:25;;;;;;;4.77;2.30;;;;;;;;;;5041492;27;89163;-56
2022/12/24 00:15:53;;;;;;;6.63;2.93;;;;;;;;;;5050108;27;90132;-56
2022/12/24 00:18:22;;;;;;;5.00;2.73;;;;;;;;;;5046045;27;89548;-57
2022/12/24 00:20:50;;;;;;;4.07;2.53;;;;;;;;;;5039220;28;87190;-56
2022/12/24 00:23:18;;;;;;;3.13;2.13;;;;;;;;;;5048061;27;87098;-56
2022/12/24 00:25:47;;;;;;;3.00;2.07;;;;;;;;;;5079406;27;89129;-56
2022/12/24 00:28:15;;;;;;;2.30;1.77;;;;;;;;;;5079360;27;88878;-56
2022/12/24 00:30:45;;;;;;;3.47;2.40;;;;;;;;;;5061426;27;87565;-56
2022/12/24 00:33:14;;;;;;;4.03;2.40;;;;;;;;;;5056915;27;86316;-56
2022/12/24 00:35:50;;;;;;;6.37;2.77;;;;;;;;;;5049195;27;89125;-56
2022/12/24 00:38:19;;;;;;;3.30;2.43;;;;;;;;;;5060411;27;88950;-56
2022/12/24 00:40:47;;;;;;;2.57;2.20;;;;;;;;;;5060172;27;88022;-56
2022/12/24 00:43:15;;;;;;;6.53;2.20;;;;;;;;;;5059644;27;87126;-56
2022/12/24 00:45:45;;;;;;;4.70;2.30;;;;;;;;;;5063191;27;88168;-56
2022/12/24 00:48:13;;;;;;;5.70;3.07;;;;;;;;;;5082333;27;88608;-56
2022/12/24 00:50:42;;;;;;;4.80;2.40;;;;;;;;;;5069975;27;87148;-56
2022/12/24 00:53:10;;;;;;;3.73;2.63;;;;;;;;;;5062062;27;87076;-57
2022/12/24 00:55:38;;;;;;;3.97;2.23;;;;;;;;;;5041428;28;88167;-56
2022/12/24 00:58:07;;;;;;;7.23;3.00;;;;;;;;;;5042017;27;87977;-56
2022/12/24 01:00:35;;;;;;;4.67;2.90;;;;;;;;;;5041583;27;86930;-57
2022/12/24 01:03:05;;;;;;;3.63;2.43;;;;;;;;;;5041880;28;86983;-56
2022/12/24 01:05:32;;;;;;;3.53;2.50;;;;;;;;;;5040246;28;90123;-56
2022/12/24 01:08:00;;;;;;;4.50;2.70;;;;;;;;;;5040482;28;89757;-57
2022/12/24 01:10:29;;;;;;;5.00;2.57;;;;;;;;;;5050620;27;87166;-56
2022/12/24 01:12:57;;;;;;;4.97;2.23;;;;;;;;;;5069150;27;87121;-56
2022/12/24 01:15:25;;;;;;;6.13;2.50;;;;;;;;;;5060637;27;88782;-56
2022/12/24 01:17:53;;;;;;;3.17;2.30;;;;;;;;;;5060925;27;88707;-56
2022/12/24 01:20:25;;;;;;;2.60;2.37;;;;;;;;;;5057865;27;87146;-56
2022/12/24 01:22:54;;;;;;;3.87;2.53;;;;;;;;;;5049012;27;88151;-56
2022/12/24 01:25:22;;;;;;;3.50;2.43;;;;;;;;;;5047770;27;89246;-56
2022/12/24 01:27:51;;;;;;;5.00;2.60;;;;;;;;;;5040866;27;89078;-56
2022/12/24 01:30:19;;;;;;;4.20;2.20;;;;;;;;;;5040452;27;88816;-56
2022/12/24 01:32:47;;;;;;;6.43;2.37;;;;;;;;;;5052761;27;87067;-56
2022/12/24 01:35:16;;;;;;;4.37;2.60;;;;;;;;;;5060977;27;87109;-56
2022/12/24 01:37:46;;;;;;;2.83;2.20;;;;;;;;;;5058372;27;89003;-56
2022/12/24 01:45:52;;;;;;;3.27;2.30;;;;;;;;;;5055758;27;88043;-56
2022/12/24 01:48:22;;;;;;;6.87;2.73;;;;;;;;;;5061426;27;87764;-56
2022/12/24 01:50:51;;;;;;;4.53;2.37;;;;;;;;;;5043292;27;87065;-56
2022/12/24 01:53:21;;;;;;;5.30;2.83;;;;;;;;;;5040323;27;87858;-56
2022/12/24 01:55:49;;;;;;;4.40;1.97;;;;;;;;;;5040137;27;89060;-56
2022/12/24 01:58:18;;;;;;;2.20;1.90;;;;;;;;;;5042116;27;88491;-56
2022/12/24 02:00:46;;;;;;;2.10;1.90;;;;;;;;;;5041131;27;87045;-56
2022/12/24 02:03:14;;;;;;;2.83;1.70;;;;;;;;;;5040719;28;87020;-56
2022/12/24 02:05:43;;;;;;;5.47;2.90;;;;;;;;;;5056358;27;89049;-56
2022/12/24 02:08:12;;;;;;;3.27;2.13;;;;;;;;;;5039965;27;87078;-56
2022/12/24 02:10:41;;;;;;;5.33;1.83;;;;;;;;;;5040027;28;87079;-56
2022/12/24 02:13:09;;;;;;;4.33;2.77;;;;;;;;;;5041855;27;86245;-56
2022/12/24 02:15:41;;;;;;;6.77;2.67;;;;;;;;;;5059564;27;88226;-55
2022/12/24 02:18:10;;;;;;;6.37;1.93;;;;;;;;;;5060542;27;88893;-56
2022/12/24 02:20:57;;;;;;;2.63;1.97;;;;;;;;;;5053866;27;88363;-56
2022/12/24 02:23:29;;;;;;;2.73;1.87;;;;;;;;;;5044923;27;87107;-56
2022/12/24 02:26:02;;;;;;;5.90;2.13;;;;;;;;;;5050193;27;89009;-56
2022/12/24 02:28:37;;;;;;;4.50;2.00;;;;;;;;;;5061113;27;88631;-56
2022/12/24 02:31:07;;;;;;;3.03;1.60;;;;;;;;;;5063691;27;87969;-56
2022/12/24 02:33:36;;;;;;;5.23;1.97;;;;;;;;;;5063793;27;87078;-56
2022/12/24 02:36:05;;;;;;;7.67;2.20;;;;;;;;;;5062149;27;89333;-56
2022/12/24 02:38:34;;;;;;;3.20;1.50;;;;;;;;;;5062963;27;86356;-56
2022/12/24 02:41:03;;;;;;;3.53;1.60;;;;;;;;;;5064022;27;87064;-56
2022/12/24 02:43:34;;;;;;;3.27;1.83;;;;;;;;;;5062020;27;87057;-56
2022/12/24 02:46:03;;;;;;;6.93;2.37;;;;;;;;;;5062922;27;90087;-57
2022/12/24 02:48:33;;;;;;;4.13;1.40;;;;;;;;;;5063532;27;87487;-56
2022/12/24 02:51:05;;;;;;;4.47;1.90;;;;;;;;;;5063626;27;87048;-56
2022/12/24 02:53:33;;;;;;;2.20;1.50;;;;;;;;;;5051426;27;87845;-56
2022/12/24 02:56:07;;;;;;;2.27;1.97;;;;;;;;;;5043118;27;88146;-56
2022/12/24 02:58:39;;;;;;;2.63;1.73;;;;;;;;;;5049592;27;88802;-56
2022/12/24 03:01:16;;;;;;;2.47;1.43;;;;;;;;;;5062061;27;87167;-57
2022/12/24 03:03:50;;;;;;;3.50;1.47;;;;;;;;;;5056447;27;86344;-56
2022/12/24 03:06:20;;;;;;;1.77;1.30;;;;;;;;;;5043528;28;89057;-57
2022/12/24 03:08:49;;;;;;;6.70;1.57;;;;;;;;;;5042913;28;88702;-56
2022/12/24 03:11:18;;;;;;;2.30;1.90;;;;;;;;;;5057045;27;87996;-55
2022/12/24 03:13:46;;;;;;;2.37;1.63;;;;;;;;;;5047806;27;87022;-56
2022/12/24 03:16:24;;;;;;;1.87;1.40;;;;;;;;;;5057972;27;88357;-55
2022/12/24 03:18:54;;;;;;;2.60;1.47;;;;;;;;;;5043056;27;88809;-56
2022/12/24 03:21:23;;;;;;;3.97;1.80;;;;;;;;;;5053780;27;87148;-56
2022/12/24 03:23:51;;;;;;;1.43;1.10;;;;;;;;;;5053533;27;87041;-57
2022/12/24 03:26:20;;;;;;;4.07;1.77;;;;;;;;;;5050323;27;87101;-56
2022/12/24 03:28:48;;;;;;;1.90;1.10;;;;;;;;;;5062611;27;88894;-56
2022/12/24 03:31:17;;;;;;;2.27;1.60;;;;;;;;;;5063031;27;87074;-56
2022/12/24 03:33:45;;;;;;;3.47;1.50;;;;;;;;;;5062949;27;87165;-56
2022/12/24 03:36:15;;;;;;;1.70;1.33;;;;;;;;;;5042707;28;89983;-56
2022/12/24 03:38:43;;;;;;;6.07;1.37;;;;;;;;;;5042782;27;89854;-56
2022/12/24 03:41:12;;;;;;;2.80;1.47;;;;;;;;;;5043053;28;88688;-57
2022/12/24 03:43:40;;;;;;;1.60;1.50;;;;;;;;;;5043156;27;87024;-56
2022/12/24 03:46:09;;;;;;;3.37;1.90;;;;;;;;;;5053687;27;89093;-56
2022/12/24 03:48:37;;;;;;;4.03;1.97;;;;;;;;;;5048318;27;89624;-56
2022/12/24 03:51:05;;;;;;;2.00;1.50;;;;;;;;;;5043151;27;86956;-56
2022/12/24 03:53:35;;;;;;;4.00;2.63;;;;;;;;;;5043338;27;86780;-56
2022/12/24 03:56:03;;;;;;;1.93;1.43;;;;;;;;;;5052250;27;87049;-56
2022/12/24 03:58:32;;;;;;;2.73;1.30;;;;;;;;;;5057639;27;87911;-56
2022/12/24 04:01:00;;;;;;;2.47;1.43;;;;;;;;;;5049104;27;87976;-57
2022/12/24 04:03:29;;;;;;;3.10;1.10;;;;;;;;;;5063001;27;87072;-56
2022/12/24 04:06:02;;;;;;;2.93;0.93;;;;;;;;;;5061969;27;88955;-56
2022/12/24 04:08:30;;;;;;;2.60;1.10;;;;;;;;;;5062774;27;88900;-56
2022/12/24 04:10:59;;;;;;;2.13;1.33;;;;;;;;;;5057104;27;87045;-56
2022/12/24 04:13:36;;;;;;;1.43;1.20;;;;;;;;;;5048084;27;87106;-56
2022/12/24 04:16:05;;;;;;;3.10;1.90;;;;;;;;;;5054307;27;89390;-56
2022/12/24 04:18:33;;;;;;;3.87;1.77;;;;;;;;;;5050589;27;87722;-56
2022/12/24 04:21:02;;;;;;;2.93;1.07;;;;;;;;;;5062407;27;87087;-55
2022/12/24 04:23:31;;;;;;;2.30;1.47;;;;;;;;;;5054521;27;87095;-56
2022/12/24 04:26:01;;;;;;;1.90;1.07;;;;;;;;;;5055032;27;90302;-56
2022/12/24 04:28:29;;;;;;;0.80;0.80;;;;;;;;;;5052189;27;87738;-56
2022/12/24 04:30:58;;;;;;;3.13;1.40;;;;;;;;;;5055848;27;86999;-56
2022/12/24 04:33:27;;;;;;;2.70;1.23;;;;;;;;;;5048110;27;87011;-56
2022/12/24 04:35:55;;;;;;;1.43;1.07;;;;;;;;;;5041348;28;89526;-56
2022/12/24 04:38:23;;;;;;;1.93;1.17;;;;;;;;;;5044522;27;87846;-56
2022/12/24 04:40:58;;;;;;;2.57;1.20;;;;;;;;;;5044398;27;87085;-56
2022/12/24 04:43:28;;;;;;;2.23;1.27;;;;;;;;;;5046156;27;86280;-56
2022/12/24 04:45:56;;;;;;;1.83;1.27;;;;;;;;;;5055954;27;89033;-56
2022/12/24 04:48:24;;;;;;;1.67;1.00;;;;;;;;;;5051035;27;87803;-56
2022/12/24 04:50:52;;;;;;;1.37;1.20;;;;;;;;;;5061821;27;88078;-56
2022/12/24 04:53:21;;;;;;;3.87;1.10;;;;;;;;;;5058104;27;86979;-56
2022/12/24 04:55:49;;;;;;;1.47;0.90;;;;;;;;;;5041618;27;89191;-56
2022/12/24 04:58:17;;;;;;;1.97;1.30;;;;;;;;;;5045164;27;88878;-56
2022/12/24 05:00:47;;;;;;;4.77;1.20;;;;;;;;;;5055648;27;88887;-56
2022/12/24 05:03:15;;;;;;;1.70;1.20;;;;;;;;;;5041655;27;87001;-55
2022/12/24 05:05:44;;;;;;;3.30;1.23;;;;;;;;;;5041154;27;89074;-56
2022/12/24 05:08:12;;;;;;;2.50;1.03;;;;;;;;;;5043006;27;87802;-56
2022/12/24 05:10:40;;;;;;;2.27;1.27;;;;;;;;;;5041934;28;87030;-56
2022/12/24 05:13:09;;;;;;;3.70;1.23;;;;;;;;;;5045009;27;87115;-57
2022/12/24 05:15:37;;;;;;;2.63;1.00;;;;;;;;;;5054409;27;89397;-57
2022/12/24 05:18:06;;;;;;;1.67;0.77;;;;;;;;;;5047321;27;88747;-56
2022/12/24 05:20:35;;;;;;;3.77;1.23;;;;;;;;;;5054616;27;87046;-56
2022/12/24 05:28:35;;;;;;;1.87;1.13;;;;;;;;;;5038690;28;88985;-56
2022/12/24 05:31:04;;;;;;;0.93;0.73;;;;;;;;;;5041163;28;87120;-56
2022/12/24 05:33:33;;;;;;;1.17;1.07;;;;;;;;;;5041578;28;86413;-56
2022/12/24 05:36:02;;;;;;;2.63;1.10;;;;;;;;;;5040560;28;88421;-57
2022/12/24 05:38:30;;;;;;;3.23;1.10;;;;;;;;;;5040693;27;88601;-56
2022/12/24 05:40:58;;;;;;;2.87;0.93;;;;;;;;;;5040570;27;88052;-56
2022/12/24 05:43:26;;;;;;;1.73;1.10;;;;;;;;;;5040611;28;87115;-56
2022/12/24 05:45:58;;;;;;;1.60;1.10;;;;;;;;;;5041203;28;87870;-56
2022/12/24 05:48:26;;;;;;;3.10;1.47;;;;;;;;;;5041012;27;88862;-57
2022/12/24 05:50:56;;;;;;;1.80;0.93;;;;;;;;;;5040466;28;87756;-57
2022/12/24 05:53:24;;;;;;;3.00;1.13;;;;;;;;;;5039895;27;86900;-57
2022/12/24 05:55:53;;;;;;;1.63;0.87;;;;;;;;;;5040626;27;89112;-56
2022/12/24 05:58:21;;;;;;;0.97;0.80;;;;;;;;;;5040582;27;88676;-57
2022/12/24 06:00:49;;;;;;;0.60;0.60;;;;;;;;;;5040641;28;87189;-56
2022/12/24 06:03:17;;;;;;;1.40;0.93;;;;;;;;;;5040321;28;87058;-56
2022/12/24 06:05:46;;;;;;;2.70;1.73;;;;;;;;;;5039213;28;90377;-56
2022/12/24 06:08:15;;;;;;;2.20;0.80;;;;;;;;;;5040219;28;89838;-56
2022/12/24 06:10:44;;;;;;;2.23;1.00;;;;;;;;;;5040601;27;87106;-56
2022/12/24 06:13:12;;;;;;;1.50;1.00;;;;;;;;;;5042975;27;86984;-56
2022/12/24 06:15:40;;;;;;;2.20;1.13;;;;;;;;;;5050222;27;89154;-56
2022/12/24 06:18:09;;;;;;;1.57;1.03;;;;;;;;;;5051238;27;87768;-57
2022/12/24 06:20:37;;;;;;;2.20;0.67;;;;;;;;;;5060962;27;86971;-56
2022/12/24 06:23:05;;;;;;;1.67;0.97;;;;;;;;;;5050197;27;86357;-56
2022/12/24 06:25:35;;;;;;;1.83;1.10;;;;;;;;;;5041220;27;88098;-56
2022/12/24 06:28:03;;;;;;;2.17;0.90;;;;;;;;;;5044967;27;88875;-56
2022/12/24 06:30:31;;;;;;;2.73;1.23;;;;;;;;;;5059981;27;87955;-56
2022/12/24 06:33:00;;;;;;;3.03;0.77;;;;;;;;;;5060217;27;87133;-56
2022/12/24 06:35:28;;;;;;;2.93;1.23;;;;;;;;;;5046512;27;88170;-57
2022/12/24 06:37:56;;;;;;;3.07;1.17;;;;;;;;;;5042226;27;89097;-57
2022/12/24 06:40:25;;;;;;;1.27;0.50;;;;;;;;;;5061230;27;87108;-57
2022/12/24 06:42:54;;;;;;;4.13;1.57;;;;;;;;;;5059960;27;87027;-56
2022/12/24 06:45:23;;;;;;;0.60;0.60;;;;;;;;;;5055797;27;89129;-56
2022/12/24 06:47:51;;;;;;;3.17;1.00;;;;;;;;;;5040374;27;88973;-56
2022/12/24 06:50:19;;;;;;;2.67;1.07;;;;;;;;;;5040725;27;87072;-57
2022/12/24 06:52:48;;;;;;;1.80;1.07;;;;;;;;;;5040138;27;86947;-56
2022/12/24 06:55:16;;;;;;;3.87;1.10;;;;;;;;;;5055410;27;89976;-56
2022/12/24 06:57:44;;;;;;;1.77;0.60;;;;;;;;;;5059762;27;89907;-56
2022/12/24 07:00:14;;;;;;;1.13;1.03;;;;;;;;;;5060480;27;87088;-56
2022/12/24 07:02:43;;;;;;;1.53;0.73;;;;;;;;;;5060566;27;86983;-56
2022/12/24 07:05:11;;;;;;;2.17;1.27;;;;;;;;;;5041988;27;88668;-56
2022/12/24 07:07:40;;;;;;;4.00;1.23;;;;;;;;;;5058451;27;88417;-56
2022/12/24 07:10:09;;;;;;;2.00;0.73;;;;;;;;;;5047829;27;87079;-57
2022/12/24 07:12:37;;;;;;;3.27;1.17;;;;;;;;;;5048634;27;86355;-56
2022/12/24 07:15:05;;;;;;;0.97;0.70;;;;;;;;;;5062874;27;89105;-57
2022/12/24 07:17:35;;;;;;;1.87;1.00;;;;;;;;;;5050504;27;87967;-56
2022/12/24 07:20:04;;;;;;;3.53;1.13;;;;;;;;;;5043315;27;87961;-56
2022/12/24 07:22:32;;;;;;;3.67;1.00;;;;;;;;;;5046572;27;87054;-56
2022/12/24 07:25:00;;;;;;;1.13;0.90;;;;;;;;;;5064383;27;89081;-57
2022/12/24 07:27:29;;;;;;;1.90;0.80;;;;;;;;;;5073233;27;88890;-57
2022/12/24 07:29:57;;;;;;;1.87;1.07;;;;;;;;;;5084311;27;86969;-56
2022/12/24 07:32:25;;;;;;;1.47;1.00;;;;;;;;;;5084116;27;86928;-56
2022/12/24 07:34:55;;;;;;;4.10;1.10;;;;;;;;;;5062434;27;89006;-56
2022/12/24 07:37:23;;;;;;;1.37;0.80;;;;;;;;;;5063296;27;86533;-56
2022/12/24 07:39:51;;;;;;;0.77;0.77;;;;;;;;;;5047574;27;87091;-56
2022/12/24 07:42:20;;;;;;;1.03;0.40;;;;;;;;;;5043617;27;87133;-56
2022/12/24 07:44:48;;;;;;;3.23;0.90;;;;;;;;;;5043350;27;90087;-56
2022/12/24 07:47:16;;;;;;;1.40;1.03;;;;;;;;;;5042463;27;88673;-56
2022/12/24 07:49:45;;;;;;;1.27;0.80;;;;;;;;;;5058476;27;86972;-56
2022/12/24 07:52:14;;;;;;;1.00;0.80;;;;;;;;;;5042812;27;87026;-56
2022/12/24 07:54:43;;;;;;;4.13;1.00;;;;;;;;;;5058129;27;88132;-56
2022/12/24 07:57:11;;;;;;;3.30;0.77;;;;;;;;;;5060807;27;88914;-56
2022/12/24 07:59:39;;;;;;;3.90;0.90;;;;;;;;;;5056466;27;87083;-56
2022/12/24 08:02:09;;;;;;;1.73;0.83;;;;;;;;;;5043152;27;87653;-56
2022/12/24 08:04:45;;;;;;;3.13;1.00;;;;;;;;;;5042171;27;89146;-56
2022/12/24 08:07:15;;;;;;;2.13;0.57;;;;;;;;;;5042266;27;88844;-56
2022/12/24 08:09:44;;;;;;;1.20;0.70;;;;;;;;;;5057652;27;88083;-56
2022/12/24 08:12:13;;;;;;;3.27;1.00;;;;;;;;;;5057776;27;87084;-56
2022/12/24 08:14:41;;;;;;;0.93;0.70;;;;;;;;;;5043458;27;89138;-56
2022/12/24 08:17:09;;;;;;;0.90;0.90;;;;;;;;;;5044746;27;87715;-56
2022/12/24 08:19:38;;;;;;;1.80;0.90;;;;;;;;;;5059756;27;87047;-56
2022/12/24 08:22:07;;;;;;;3.00;0.80;;;;;;;;;;5042146;27;86900;-56
2022/12/24 08:24:37;;;;;;;2.17;0.70;;;;;;;;;;5044206;27;89148;-56
2022/12/24 08:27:05;;;;;;;3.30;1.57;;;;;;;;;;5043110;27;89008;-56
2022/12/24 08:29:34;;;;;;;1.03;1.00;;;;;;;;;;5053194;27;87060;-56
2022/12/24 08:32:02;;;;;;;2.40;0.90;;;;;;;;;;5062374;27;87077;-56
2022/12/24 08:34:30;;;;;;;2.70;0.70;;;;;;;;;;5059468;27;89190;-56
2022/12/24 08:36:59;;;;;;;1.60;1.10;;;;;;;;;;5060278;27;87607;-56
2022/12/24 08:39:27;;;;;;;2.60;0.83;;;;;;;;;;5060735;27;87024;-56
2022/12/24 08:41:57;;;;;;;2.10;1.10;;;;;;;;;;5060349;27;87022;-56
2022/12/24 08:44:25;;;;;;;3.93;0.70;;;;;;;;;;5061748;27;87754;-56
2022/12/24 08:46:54;;;;;;;5.33;1.20;;;;;;;;;;5048990;27;88878;-56
2022/12/24 08:49:22;;;;;;;0.93;0.87;;;;;;;;;;5042002;28;87027;-56
2022/12/24 08:51:51;;;;;;;1.17;0.60;;;;;;;;;;5042003;27;86311;-56
2022/12/24 08:54:21;;;;;;;0.87;0.73;;;;;;;;;;5052122;27;88245;-56
2022/12/24 08:56:49;;;;;;;2.50;1.23;;;;;;;;;;5056434;27;87698;-56
2022/12/24 08:59:19;;;;;;;2.17;1.03;;;;;;;;;;5042730;27;88076;-56
2022/12/24 09:01:47;;;;;;;3.20;1.03;;;;;;;;;;5044023;27;87134;-57
2022/12/24 09:04:16;;;;;;;4.27;1.53;;;;;;;;;;5044438;27;88057;-56
2022/12/24 09:06:44;;;;;;;3.97;1.23;;;;;;;;;;5061220;27;89127;-56
2022/12/24 09:09:12;;;;;;;2.10;1.07;;;;;;;;;;5044725;27;87495;-56
2022/12/24 09:11:41;;;;;;;4.67;0.90;;;;;;;;;;5042416;27;87066;-57
2022/12/24 09:14:09;;;;;;;1.80;1.20;;;;;;;;;;5052541;27;89085;-56
2022/12/24 09:16:39;;;;;;;2.80;0.77;;;;;;;;;;5061421;27;88112;-56
2022/12/24 09:19:07;;;;;;;2.13;1.10;;;;;;;;;;5061511;27;87096;-56
2022/12/24 09:21:36;;;;;;;0.57;0.37;;;;;;;;;;5056541;27;87040;-56
2022/12/24 09:24:04;;;;;;;3.27;1.23;;;;;;;;;;5040500;27;90013;-56
2022/12/24 09:26:32;;;;;;;1.60;0.53;;;;;;;;;;5059271;27;89964;-57
2022/12/24 09:29:01;;;;;;;3.97;0.70;;;;;;;;;;5043840;27;86891;-56
2022/12/24 09:31:29;;;;;;;3.10;0.73;;;;;;;;;;5042017;27;86939;-56
2022/12/24 09:33:59;;;;;;;0.53;0.53;;;;;;;;;;5041016;28;89092;-56
2022/12/24 09:36:27;;;;;;;0.87;0.50;;;;;;;;;;5048990;27;87755;-56
2022/12/24 09:38:56;;;;;;;1.63;1.00;;;;;;;;;;5059807;27;87114;-56
2022/12/24 09:41:27;;;;;;;1.50;0.87;;;;;;;;;;5060487;27;86383;-57
2022/12/24 09:43:57;;;;;;;1.93;0.70;;;;;;;;;;5041450;27;89287;-56
2022/12/24 09:46:26;;;;;;;4.67;1.10;;;;;;;;;;5041661;27;88794;-56
2022/12/24 09:48:55;;;;;;;0.97;0.40;;;;;;;;;;5040488;27;88079;-56
2022/12/24 09:51:27;;;;;;;2.27;1.13;;;;;;;;;;5041157;27;87099;-56
2022/12/24 09:53:56;;;;;;;1.00;0.47;;;;;;;;;;5052274;27;89131;-56
2022/12/24 09:56:25;;;;;;;0.93;0.70;;;;;;;;;;5060988;27;88034;-56
2022/12/24 09:58:54;;;;;;;2.57;0.93;;;;;;;;;;5060105;27;87616;-56
2022/12/24 10:01:22;;;;;;;2.10;0.80;;;;;;;;;;5048710;27;86992;-55
2022/12/24 10:03:50;;;;;;;1.83;1.00;;;;;;;;;;5047393;27;88037;-57
2022/12/24 10:06:20;;;;;;;6.03;0.80;;;;;;;;;;5047483;27;88702;-56
2022/12/24 10:09:01;;;;;;;1.27;0.50;;;;;;;;;;5040693;27;86992;-59
2022/12/24 10:11:31;;;;;;;1.50;1.20;;;;;;;;;;5042695;27;89019;-56
2022/12/24 10:14:03;;;;;;;2.80;0.80;;;;;;;;;;5040094;28;88779;-56
2022/12/24 10:16:33;;;;;;;2.90;1.57;;;;;;;;;;5042561;27;89828;-57
2022/12/24 10:19:03;;;;;;;0.83;0.70;;;;;;;;;;5044244;27;87030;-57
2022/12/24 10:21:35;;;;;;;1.23;0.90;;;;;;;;;;5040197;27;87147;-57
2022/12/24 10:24:07;;;;;;;3.67;0.90;;;;;;;;;;5040576;28;88025;-57
2022/12/24 10:26:36;;;;;;;1.33;0.50;;;;;;;;;;5040071;27;88978;-56
2022/12/24 10:29:07;;;;;;;1.83;1.00;;;;;;;;;;5039685;28;87192;-56
2022/12/24 10:31:36;;;;;;;4.20;1.17;;;;;;;;;;5039953;28;87983;-57
2022/12/24 10:34:06;;;;;;;0.80;0.80;;;;;;;;;;5039907;28;88115;-56
2022/12/24 10:36:34;;;;;;;3.17;1.07;;;;;;;;;;5039692;28;88089;-56
2022/12/24 10:39:02;;;;;;;4.93;0.80;;;;;;;;;;5039943;27;88077;-57
2022/12/24 10:41:32;;;;;;;2.93;1.17;;;;;;;;;;5043131;28;87043;-57
2022/12/24 10:44:01;;;;;;;1.23;1.13;;;;;;;;;;5048089;27;88209;-56
2022/12/24 10:46:31;;;;;;;2.23;0.50;;;;;;;;;;5053247;27;87792;-57
2022/12/24 10:49:01;;;;;;;1.87;0.67;;;;;;;;;;5062663;27;87048;-57
2022/12/24 10:51:30;;;;;;;2.27;1.17;;;;;;;;;;5062410;27;86919;-57
2022/12/24 10:54:01;;;;;;;2.07;0.80;;;;;;;;;;5049404;27;89070;-56
2022/12/24 10:56:29;;;;;;;2.07;0.60;;;;;;;;;;5055376;27;88835;-57
2022/12/24 10:58:59;;;;;;;2.50;0.87;;;;;;;;;;5063954;27;87093;-57
2022/12/24 11:01:42;;;;;;;1.40;0.83;;;;;;;;;;5064154;27;86975;-56
2022/12/24 11:04:15;;;;;;;0.77;0.70;;;;;;;;;;5062918;27;88734;-57
2022/12/24 11:06:52;;;;;;;0.77;0.50;;;;;;;;;;5062942;27;88878;-56
2022/12/24 11:09:21;;;;;;;4.67;0.90;;;;;;;;;;5064012;27;87062;-57
2022/12/24 11:11:50;;;;;;;2.07;0.83;;;;;;;;;;5063784;27;87093;-57
2022/12/24 11:14:20;;;;;;;4.63;0.97;;;;;;;;;;5063426;27;89106;-57
2022/12/24 11:16:49;;;;;;;1.23;0.60;;;;;;;;;;5063109;27;87824;-56
2022/12/24 11:19:18;;;;;;;0.60;0.60;;;;;;;;;;5063999;27;87065;-56
2022/12/24 11:21:47;;;;;;;1.43;0.67;;;;;;;;;;5064120;27;86222;-57
2022/12/24 11:24:22;;;;;;;2.63;0.73;;;;;;;;;;5063500;27;87083;-56
2022/12/24 11:26:50;;;;;;;1.90;0.70;;;;;;;;;;5063372;27;87822;-56
2022/12/24 11:29:21;;;;;;;1.00;0.80;;;;;;;;;;5062811;27;88067;-56
2022/12/24 11:31:51;;;;;;;1.50;0.67;;;;;;;;;;5063467;27;87145;-56
2022/12/24 11:34:24;;;;;;;1.30;0.87;;;;;;;;;;5063059;27;89069;-56
2022/12/24 11:36:52;;;;;;;1.13;1.00;;;;;;;;;;5062565;27;87710;-56
2022/12/24 11:39:21;;;;;;;4.90;1.13;;;;;;;;;;5063608;27;87017;-56
2022/12/24 11:41:50;;;;;;;3.67;0.87;;;;;;;;;;5063109;27;87051;-55
2022/12/24 11:44:24;;;;;;;2.17;0.40;;;;;;;;;;5062899;27;89214;-56
2022/12/24 11:46:55;;;;;;;1.50;0.80;;;;;;;;;;5063114;27;89016;-55
2022/12/24 11:49:24;;;;;;;2.67;0.83;;;;;;;;;;5063177;27;86965;-57
2022/12/24 11:52:20;;;;;;;2.67;0.77;;;;;;;;;;5061633;27;87098;-56
2022/12/24 11:54:53;;;;;;;0.63;0.50;;;;;;;;;;5015226;27;89071;-56
2022/12/24 11:57:22;;;;;;;1.73;1.03;;;;;;;;;;5062910;27;89612;-56
2022/12/24 11:59:52;;;;;;;1.13;0.70;;;;;;;;;;5062957;27;86960;-56
2022/12/24 12:02:22;;;;;;;3.87;0.80;;;;;;;;;;5062792;27;88163;-56
2022/12/24 12:04:51;;;;;;;2.30;0.93;;;;;;;;;;5062664;27;89133;-56
2022/12/24 12:07:21;;;;;;;1.87;1.00;;;;;;;;;;5062760;27;88822;-56
2022/12/24 12:09:49;;;;;;;1.10;0.60;;;;;;;;;;5062459;27;87081;-55
2022/12/24 12:12:19;;;;;;;0.57;0.57;;;;;;;;;;5063368;27;86259;-56
2022/12/24 12:14:48;;;;;;;2.13;1.07;;;;;;;;;;5062715;27;89084;-56
2022/12/24 12:17:22;;;;;;;3.23;1.40;;;;;;;;;;5062911;27;87866;-56
2022/12/24 12:19:53;;;;;;;0.83;0.70;;;;;;;;;;5062385;27;88022;-56
2022/12/24 12:22:24;;;;;;;2.47;0.97;;;;;;;;;;5062385;27;87064;-55
2022/12/24 12:24:53;;;;;;;3.73;1.10;;;;;;;;;;5062567;27;89090;-56
2022/12/24 12:27:22;;;;;;;2.27;1.20;;;;;;;;;;5062315;27;87057;-56
2022/12/24 12:29:51;;;;;;;2.30;1.07;;;;;;;;;;5062669;27;86913;-56
2022/12/24 12:32:25;;;;;;;2.03;0.90;;;;;;;;;;5062774;27;87095;-56
2022/12/24 12:34:56;;;;;;;1.43;1.30;;;;;;;;;;5062447;27;87580;-56
2022/12/24 12:37:26;;;;;;;3.53;1.57;;;;;;;;;;5062788;27;87796;-56
2022/12/24 12:39:55;;;;;;;3.47;1.17;;;;;;;;;;5062608;27;86947;-56
2022/12/24 12:42:25;;;;;;;0.80;0.67;;;;;;;;;;5062314;27;87079;-56
2022/12/24 12:44:57;;;;;;;0.83;0.70;;;;;;;;;;5061055;27;89116;-57
2022/12/24 12:47:32;;;;;;;0.73;0.73;;;;;;;;;;5061809;27;89872;-55
2022/12/24 12:50:02;;;;;;;2.73;0.97;;;;;;;;;;5062547;27;87101;-56
2022/12/24 12:52:34;;;;;;;1.57;1.00;;;;;;;;;;5062025;27;87098;-57
2022/12/24 12:55:05;;;;;;;2.57;1.00;;;;;;;;;;5061549;27;87416;-56
2022/12/24 12:57:35;;;;;;;2.00;1.17;;;;;;;;;;5061885;27;88992;-56
2022/12/24 13:00:05;;;;;;;1.37;0.60;;;;;;;;;;5062400;27;86985;-56
2022/12/24 13:02:39;;;;;;;4.07;1.20;;;;;;;;;;5062176;27;86347;-56
2022/12/24 13:05:20;;;;;;;0.90;0.90;;;;;;;;;;5061735;27;89412;-56
2022/12/24 13:07:52;;;;;;;2.73;1.50;;;;;;;;;;5061724;27;88813;-56
2022/12/24 13:10:25;;;;;;;2.33;1.00;;;;;;;;;;5061297;27;87977;-56
2022/12/24 13:13:13;;;;;;;6.07;1.40;;;;;;;;;;5062047;27;87006;-56
2022/12/24 13:15:50;;;;;;;2.80;1.70;;;;;;;;;;5061461;27;89077;-56
2022/12/24 13:18:29;;;;;;;1.23;1.10;;;;;;;;;;5061734;27;87918;-57
2022/12/24 13:20:57;;;;;;;0.80;0.80;;;;;;;;;;5061616;27;87092;-56
2022/12/24 13:23:26;;;;;;;1.03;0.93;;;;;;;;;;5061818;27;86981;-56
2022/12/24 13:25:55;;;;;;;1.20;0.90;;;;;;;;;;5061511;27;88035;-56
2022/12/24 13:28:37;;;;;;;2.07;0.93;;;;;;;;;;5061681;27;89027;-56
2022/12/24 13:31:24;;;;;;;0.97;0.87;;;;;;;;;;5061390;27;87208;-56
2022/12/24 13:33:54;;;;;;;1.27;0.70;;;;;;;;;;5061908;27;86989;-56
2022/12/24 13:36:23;;;;;;;2.53;1.00;;;;;;;;;;5060642;27;88135;-56
2022/12/24 13:38:51;;;;;;;2.00;0.93;;;;;;;;;;5060960;27;89868;-56
2022/12/24 13:41:39;;;;;;;2.73;0.70;;;;;;;;;;5061256;27;87035;-56
2022/12/24 13:44:16;;;;;;;1.63;0.80;;;;;;;;;;5060995;27;87121;-56
2022/12/24 13:46:48;;;;;;;3.17;0.83;;;;;;;;;;5060984;27;87853;-56
2022/12/24 13:49:19;;;;;;;0.50;0.50;;;;;;;;;;5061232;27;86991;-56
2022/12/24 13:51:48;;;;;;;1.47;0.60;;;;;;;;;;5060900;27;86980;-57
2022/12/24 13:54:18;;;;;;;5.57;1.13;;;;;;;;;;5061650;27;87281;-56
2022/12/24 13:56:46;;;;;;;4.53;0.83;;;;;;;;;;5060980;27;89177;-56
2022/12/24 13:59:20;;;;;;;1.30;1.03;;;;;;;;;;5060980;27;87789;-56
2022/12/24 14:01:49;;;;;;;1.03;0.67;;;;;;;;;;5060572;27;87989;-56
2022/12/24 14:04:23;;;;;;;0.97;0.53;;;;;;;;;;5061194;27;87122;-56
2022/12/24 14:06:52;;;;;;;1.03;0.67;;;;;;;;;;5060594;27;88325;-56
2022/12/24 14:09:21;;;;;;;0.63;0.60;;;;;;;;;;5061066;27;88768;-56
2022/12/24 14:12:07;;;;;;;1.37;1.07;;;;;;;;;;5060741;27;87472;-56
2022/12/24 14:14:36;;;;;;;1.30;1.00;;;;;;;;;;5060503;27;87012;-56
2022/12/24 14:17:06;;;;;;;1.30;0.90;;;;;;;;;;5060929;27;89340;-56
2022/12/24 14:19:39;;;;;;;1.30;1.03;;;;;;;;;;5061379;27;88844;-56
2022/12/24 14:22:15;;;;;;;2.93;1.00;;;;;;;;;;5061007;27;87028;-56
2022/12/24 14:24:43;;;;;;;1.33;0.80;;;;;;;;;;5061040;27;87176;-56
2022/12/24 14:27:14;;;;;;;2.83;1.10;;;;;;;;;;5060120;27;88857;-56
2022/12/24 14:29:45;;;;;;;0.63;0.63;;;;;;;;;;5060915;27;89773;-56
2022/12/24 14:32:14;;;;;;;1.37;0.83;;;;;;;;;;5060943;27;87092;-56
2022/12/24 14:34:44;;;;;;;1.20;0.50;;;;;;;;;;5060790;27;88313;-56
2022/12/24 14:37:12;;;;;;;2.90;1.23;;;;;;;;;;5060452;27;89172;-56
2022/12/24 14:39:42;;;;;;;3.43;1.00;;;;;;;;;;5060665;27;88124;-56
2022/12/24 14:42:29;;;;;;;1.67;0.80;;;;;;;;;;5060546;27;87062;-56
2022/12/24 14:45:00;;;;;;;0.80;0.80;;;;;;;;;;5061016;27;86356;-56
2022/12/24 14:47:30;;;;;;;1.33;0.70;;;;;;;;;;5060374;27;88044;-57
2022/12/24 14:50:05;;;;;;;4.77;0.70;;;;;;;;;;5060295;27;88928;-56
2022/12/24 14:52:35;;;;;;;3.20;0.70;;;;;;;;;;5059666;27;87992;-56
2022/12/24 14:55:36;;;;;;;2.03;0.97;;;;;;;;;;5060505;27;87123;-56
2022/12/24 14:58:24;;;;;;;0.80;0.80;;;;;;;;;;5060120;27;89114;-56
2022/12/24 15:00:52;;;;;;;2.33;0.90;;;;;;;;;;5060211;27;88856;-57
2022/12/24 15:03:22;;;;;;;2.77;1.23;;;;;;;;;;5060778;27;87695;-56
2022/12/24 15:05:52;;;;;;;3.60;1.23;;;;;;;;;;5060193;27;87049;-56
2022/12/24 15:08:21;;;;;;;1.10;0.60;;;;;;;;;;5059861;27;88090;-56
2022/12/24 15:10:50;;;;;;;2.20;0.73;;;;;;;;;;5060430;27;86659;-56